Time;durP1;ratioP1;P1;durP2;ratioP2;P2;SDS_P1;SDS_P2;PMS_P1;PMS_P2;Temp;Humidity;BMP_temperature;BMP_pressure;BME280_temperature;BME280_humidity;BME280_pressure;Samples;Min_cycle;Max_cycle;Signal;HPM_P1;HPM_P2
2023/04/24 00:01:07;;;;;;;;;;;22.20;99.90;;;;;;5076482;28;19923;-67
2023/04/24 00:03:34;;;;;;;;;;;22.30;99.90;;;;;;5076581;28;19974;-68
2023/04/24 00:06:02;;;;;;;;;;;22.40;99.90;;;;;;5077212;28;19908;-66
2023/04/24 00:08:28;;;;;;;;;;;22.50;99.90;;;;;;5076589;28;20015;-66
2023/04/24 00:10:55;;;;;;;;;;;22.60;99.90;;;;;;5076368;28;20311;-68
2023/04/24 00:13:22;;;;;;;;;;;22.60;99.90;;;;;;5076495;28;20002;-67
2023/04/24 00:15:48;;;;;;;;;;;22.60;99.90;;;;;;5076468;28;19908;-66
2023/04/24 00:18:15;;;;;;;;;;;22.60;99.90;;;;;;5077154;28;19908;-67
2023/04/24 00:20:43;;;;;;;;;;;22.50;99.90;;;;;;5075163;28;19908;-67
2023/04/24 00:23:10;;;;;;;;;;;22.60;99.90;;;;;;5076393;28;20528;-66
2023/04/24 00:25:36;;;;;;;;;;;22.60;99.90;;;;;;5076156;28;19915;-67
2023/04/24 00:28:03;;;;;;;;;;;22.70;99.90;;;;;;5077182;28;19939;-66
2023/04/24 00:30:29;;;;;;;;;;;22.70;99.90;;;;;;5075347;28;19978;-67
2023/04/24 00:32:56;;;;;;;;;;;22.80;99.90;;;;;;5076365;28;20015;-65
2023/04/24 00:35:23;;;;;;;;;;;22.80;99.90;;;;;;5058171;28;19990;-68
2023/04/24 00:37:50;;;;;;;;;;;23.00;99.90;;;;;;5075852;28;19932;-70
2023/04/24 00:40:16;;;;;;;;;;;23.10;99.90;;;;;;5076356;28;19924;-68
2023/04/24 00:42:44;;;;;;;;;;;23.30;99.60;;;;;;5076036;28;19916;-67
2023/04/24 00:45:12;;;;;;;;;;;23.40;99.90;;;;;;5077915;28;19908;-68
2023/04/24 00:47:42;;;;;;;;;;;23.60;99.90;;;;;;5076088;28;20135;-68
2023/04/24 00:50:09;;;;;;;;;;;23.80;99.40;;;;;;5077136;28;19990;-69
2023/04/24 00:52:36;;;;;;;;;;;23.80;98.20;;;;;;5076309;28;19950;-67
2023/04/24 00:55:03;;;;;;;;;;;23.70;97.90;;;;;;5075930;28;19912;-68
2023/04/24 00:57:30;;;;;;;;;;;23.60;98.20;;;;;;5057711;28;19908;-68
2023/04/24 00:59:57;;;;;;;;;;;23.60;98.70;;;;;;5076266;28;20269;-67
2023/04/24 01:02:24;;;;;;;;;;;23.40;99.30;;;;;;5076225;28;19915;-65
2023/04/24 01:04:51;;;;;;;;;;;23.40;99.90;;;;;;5075311;28;19912;-66
2023/04/24 01:07:21;;;;;;;;;;;23.40;99.90;;;;;;5076572;28;19908;-67
2023/04/24 01:09:48;;;;;;;;;;;23.50;99.90;;;;;;5075953;28;19912;-68
2023/04/24 01:12:15;;;;;;;;;;;23.80;99.90;;;;;;5075829;28;19965;-67
2023/04/24 01:14:42;;;;;;;;;;;24.10;99.50;;;;;;5076159;28;19919;-67
2023/04/24 01:17:09;;;;;;;;;;;24.30;99.20;;;;;;5075434;28;20400;-67
2023/04/24 01:19:36;;;;;;;;;;;24.30;98.60;;;;;;5074507;28;19912;-66
2023/04/24 01:22:03;;;;;;;;;;;24.40;98.40;;;;;;5075999;28;19916;-69
2023/04/24 01:24:30;;;;;;;;;;;24.40;98.40;;;;;;5075450;28;19966;-67
2023/04/24 01:26:57;;;;;;;;;;;24.30;97.90;;;;;;5076748;28;19909;-66
2023/04/24 01:29:24;;;;;;;;;;;24.10;97.60;;;;;;5074720;28;19960;-68
2023/04/24 01:31:50;;;;;;;;;;;24.30;98.30;;;;;;5075883;28;19908;-67
2023/04/24 01:34:17;;;;;;;;;;;24.60;98.20;;;;;;5075449;28;20384;-69
2023/04/24 01:36:46;;;;;;;;;;;24.80;98.20;;;;;;5075248;28;19912;-68
2023/04/24 01:39:13;;;;;;;;;;;25.00;97.80;;;;;;5075503;28;19919;-68
2023/04/24 01:41:39;;;;;;;;;;;25.10;97.60;;;;;;5075479;28;20393;-65
2023/04/24 01:44:06;;;;;;;;;;;25.10;97.40;;;;;;5074435;28;20006;-68
2023/04/24 01:46:34;;;;;;;;;;;25.00;98.00;;;;;;5074674;28;19912;-68
2023/04/24 01:49:01;;;;;;;;;;;25.00;97.80;;;;;;5076004;28;19961;-66
2023/04/24 01:51:27;;;;;;;;;;;24.90;97.40;;;;;;5074126;28;19908;-66
2023/04/24 01:53:55;;;;;;;;;;;24.80;97.40;;;;;;5075392;28;20007;-67
2023/04/24 01:56:22;;;;;;;;;;;24.90;97.20;;;;;;5075467;28;20360;-69
2023/04/24 01:58:50;;;;;;;;;;;24.80;97.10;;;;;;5076249;28;20005;-67
2023/04/24 02:01:20;;;;;;;;;;;24.70;97.80;;;;;;5075867;28;19959;-67
2023/04/24 02:03:47;;;;;;;;;;;24.70;99.90;;;;;;5075023;28;19931;-68
2023/04/24 02:06:13;;;;;;;;;;;24.60;99.90;;;;;;5075009;28;19919;-66
2023/04/24 02:08:40;;;;;;;;;;;24.60;99.90;;;;;;5076087;28;20268;-69
2023/04/24 02:11:08;;;;;;;;;;;24.40;99.90;;;;;;5076228;28;19912;-67
2023/04/24 02:13:35;;;;;;;;;;;24.30;99.90;;;;;;5075630;28;19912;-65
2023/04/24 02:16:02;;;;;;;;;;;24.20;99.90;;;;;;5075560;28;20430;-66
2023/04/24 02:18:29;;;;;;;;;;;24.10;99.90;;;;;;5074476;28;19988;-66
2023/04/24 02:20:55;;;;;;;;;;;23.90;99.90;;;;;;5075479;28;20391;-66
2023/04/24 02:23:22;;;;;;;;;;;23.70;99.90;;;;;;5075866;28;20019;-67
2023/04/24 02:25:49;;;;;;;;;;;23.70;99.90;;;;;;5074987;28;19929;-66
2023/04/24 02:28:16;;;;;;;;;;;23.70;99.90;;;;;;5076372;28;19915;-68
2023/04/24 02:30:42;;;;;;;;;;;23.60;99.90;;;;;;5079064;28;19916;-66
2023/04/24 02:33:09;;;;;;;;;;;23.50;99.90;;;;;;5079978;28;19908;-67
2023/04/24 02:35:36;;;;;;;;;;;23.40;99.90;;;;;;5078127;28;19996;-66
2023/04/24 02:38:03;;;;;;;;;;;23.30;99.90;;;;;;5079275;28;19908;-66
2023/04/24 02:40:31;;;;;;;;;;;23.20;99.90;;;;;;5079276;28;20284;-67
2023/04/24 02:42:57;;;;;;;;;;;23.10;99.90;;;;;;5078960;28;19968;-69
2023/04/24 02:45:24;;;;;;;;;;;23.00;99.90;;;;;;5079023;28;19908;-65
2023/04/24 02:47:51;;;;;;;;;;;23.00;99.90;;;;;;5077541;28;19908;-67
2023/04/24 02:50:17;;;;;;;;;;;22.90;99.90;;;;;;5079486;28;19981;-66
2023/04/24 02:52:44;;;;;;;;;;;22.90;99.90;;;;;;5078955;28;19965;-68
2023/04/24 02:55:11;;;;;;;;;;;22.90;99.90;;;;;;5078986;28;20606;-68
2023/04/24 02:57:38;;;;;;;;;;;23.00;99.90;;;;;;5077557;28;20048;-67
2023/04/24 03:00:06;;;;;;;;;;;23.00;99.90;;;;;;5078913;28;19908;-66
2023/04/24 03:02:33;;;;;;;;;;;23.00;99.90;;;;;;5078354;28;19916;-66
2023/04/24 03:05:00;;;;;;;;;;;23.10;99.90;;;;;;5078686;28;20246;-67
2023/04/24 03:07:27;;;;;;;;;;;23.20;99.90;;;;;;5078023;28;19915;-65
2023/04/24 03:09:53;;;;;;;;;;;23.30;99.90;;;;;;5077591;28;19908;-68
2023/04/24 03:12:20;;;;;;;;;;;23.70;99.90;;;;;;5078977;28;19908;-68
2023/04/24 03:14:47;;;;;;;;;;;23.90;99.90;;;;;;5078476;28;19908;-68
2023/04/24 03:17:13;;;;;;;;;;;24.00;99.90;;;;;;5078247;28;20414;-65
2023/04/24 03:19:40;;;;;;;;;;;24.30;99.90;;;;;;5077279;28;19965;-68
2023/04/24 03:22:08;;;;;;;;;;;24.30;99.90;;;;;;5078493;28;19915;-67
2023/04/24 03:24:35;;;;;;;;;;;24.40;99.90;;;;;;5078074;28;19912;-67
2023/04/24 03:27:02;;;;;;;;;;;24.30;99.90;;;;;;5077932;28;20412;-66
2023/04/24 03:29:28;;;;;;;;;;;24.20;99.90;;;;;;5077503;28;19955;-66
2023/04/24 03:31:55;;;;;;;;;;;24.40;99.90;;;;;;5076845;28;19947;-69
2023/04/24 03:34:22;;;;;;;;;;;25.10;99.90;;;;;;5078808;28;19915;-67
2023/04/24 03:36:48;;;;;;;;;;;25.40;99.30;;;;;;5077876;28;19915;-67
2023/04/24 03:39:15;;;;;;;;;;;25.40;99.60;;;;;;5077560;28;19995;-66
2023/04/24 03:41:42;;;;;;;;;;;25.30;99.60;;;;;;5076420;28;20307;-67
2023/04/24 03:44:08;;;;;;;;;;;25.00;99.90;;;;;;5077340;28;19966;-68
2023/04/24 03:46:35;;;;;;;;;;;24.50;99.90;;;;;;5078092;28;20342;-66
2023/04/24 03:49:02;;;;;;;;;;;24.20;99.90;;;;;;5076846;28;19908;-66
2023/04/24 03:51:30;;;;;;;;;;;23.90;99.90;;;;;;5077837;28;19968;-68
2023/04/24 03:53:56;;;;;;;;;;;23.70;99.90;;;;;;5077639;28;20360;-67
2023/04/24 03:56:23;;;;;;;;;;;23.60;99.90;;;;;;5078296;28;19947;-68
2023/04/24 03:58:49;;;;;;;;;;;23.60;99.90;;;;;;5076778;28;19908;-68
2023/04/24 04:01:16;;;;;;;;;;;23.60;99.90;;;;;;5077380;28;19912;-66
2023/04/24 04:03:43;;;;;;;;;;;24.00;99.90;;;;;;5077082;28;19931;-68
2023/04/24 04:06:11;;;;;;;;;;;24.30;99.90;;;;;;5077247;28;20284;-68
2023/04/24 04:08:37;;;;;;;;;;;24.50;99.90;;;;;;5077177;28;19915;-66
2023/04/24 04:11:04;;;;;;;;;;;24.40;99.90;;;;;;5076184;28;20026;-66
2023/04/24 04:13:31;;;;;;;;;;;24.30;99.90;;;;;;5078292;28;20752;-66
2023/04/24 04:15:57;;;;;;;;;;;24.30;99.90;;;;;;5077758;28;19912;-67
2023/04/24 04:18:24;;;;;;;;;;;24.30;99.90;;;;;;5077311;28;20339;-67
2023/04/24 04:20:50;;;;;;;;;;;24.50;99.90;;;;;;5076645;28;19959;-67
2023/04/24 04:23:17;;;;;;;;;;;24.60;99.90;;;;;;5077563;28;20083;-65
2023/04/24 04:25:44;;;;;;;;;;;24.60;99.90;;;;;;5077873;28;20262;-68
2023/04/24 04:28:10;;;;;;;;;;;24.70;99.90;;;;;;5077263;28;19912;-67
2023/04/24 04:30:38;;;;;;;;;;;25.80;99.90;;;;;;5074891;28;20045;-66
2023/04/24 04:33:04;;;;;;;;;;;27.30;98.60;;;;;;5076855;28;19966;-67
2023/04/24 04:35:31;;;;;;;;;;;28.30;96.30;;;;;;5076670;28;20333;-67
2023/04/24 04:37:58;;;;;;;;;;;29.00;95.00;;;;;;5076040;28;20114;-67
2023/04/24 04:40:26;;;;;;;;;;;30.40;93.90;;;;;;5075334;28;19927;-65
2023/04/24 04:42:53;;;;;;;;;;;31.00;92.40;;;;;;5076734;28;20376;-65
2023/04/24 04:45:20;;;;;;;;;;;30.90;91.20;;;;;;5077248;28;19908;-66
2023/04/24 04:47:47;;;;;;;;;;;29.80;92.30;;;;;;5076750;28;19916;-68
2023/04/24 04:50:13;;;;;;;;;;;29.50;93.40;;;;;;5076963;28;19908;-65
2023/04/24 04:52:40;;;;;;;;;;;30.40;92.60;;;;;;5075011;28;19916;-67
2023/04/24 04:55:07;;;;;;;;;;;31.90;90.90;;;;;;5076754;28;20009;-68
2023/04/24 04:57:34;;;;;;;;;;;32.70;88.20;;;;;;5075836;28;19966;-66
2023/04/24 05:00:01;;;;;;;;;;;32.30;87.50;;;;;;5076088;28;19939;-66
2023/04/24 05:02:27;;;;;;;;;;;30.70;90.30;;;;;;5075456;28;19912;-68
2023/04/24 05:04:54;;;;;;;;;;;29.30;92.20;;;;;;5075736;28;19951;-67
2023/04/24 05:07:21;;;;;;;;;;;28.20;93.60;;;;;;5076770;28;19915;-68
2023/04/24 05:09:47;;;;;;;;;;;27.40;94.70;;;;;;5075663;28;19912;-65
2023/04/24 05:12:14;;;;;;;;;;;26.80;95.10;;;;;;5076210;28;19908;-67
2023/04/24 05:14:41;;;;;;;;;;;26.30;96.40;;;;;;5075696;28;19908;-67
2023/04/24 05:17:07;;;;;;;;;;;25.90;97.10;;;;;;5076215;28;19957;-66
2023/04/24 05:19:35;;;;;;;;;;;25.40;97.80;;;;;;5076119;28;20361;-68
2023/04/24 05:22:04;;;;;;;;;;;25.10;98.50;;;;;;5075524;28;19912;-68
2023/04/24 05:24:30;;;;;;;;;;;25.00;98.90;;;;;;5075533;28;19951;-68
2023/04/24 05:26:58;;;;;;;;;;;24.70;99.30;;;;;;5076749;28;19908;-66
2023/04/24 05:29:26;;;;;;;;;;;24.30;99.60;;;;;;5056401;28;20337;-70
2023/04/24 05:31:52;;;;;;;;;;;24.00;99.90;;;;;;5064710;28;20011;-67
2023/04/24 05:34:19;;;;;;;;;;;23.80;99.90;;;;;;5076228;28;19919;-67
2023/04/24 05:36:46;;;;;;;;;;;23.60;99.90;;;;;;5075240;28;19969;-69
2023/04/24 05:39:12;;;;;;;;;;;23.40;99.90;;;;;;5075817;28;20393;-66
2023/04/24 05:41:39;;;;;;;;;;;23.40;99.90;;;;;;5075751;28;20018;-65
2023/04/24 05:44:06;;;;;;;;;;;23.30;99.90;;;;;;5075182;28;19920;-68
2023/04/24 05:46:32;;;;;;;;;;;23.10;99.90;;;;;;5075598;28;19908;-69
2023/04/24 05:48:59;;;;;;;;;;;23.00;99.90;;;;;;5076198;28;19908;-66
2023/04/24 05:51:26;;;;;;;;;;;22.80;99.90;;;;;;5076516;28;19912;-66
2023/04/24 05:53:52;;;;;;;;;;;22.70;99.90;;;;;;5075152;28;20735;-67
2023/04/24 05:56:20;;;;;;;;;;;22.60;99.90;;;;;;5075726;28;19908;-66
2023/04/24 05:58:47;;;;;;;;;;;22.40;99.90;;;;;;5075173;28;19908;-66
2023/04/24 06:01:16;;;;;;;;;;;22.40;99.90;;;;;;5075491;28;20019;-67
2023/04/24 06:03:43;;;;;;;;;;;22.30;99.90;;;;;;5076033;28;19919;-67
2023/04/24 06:06:10;;;;;;;;;;;22.20;99.90;;;;;;5078830;28;20617;-68
2023/04/24 06:08:36;;;;;;;;;;;22.10;99.90;;;;;;5079440;28;19995;-67
2023/04/24 06:11:03;;;;;;;;;;;22.00;99.90;;;;;;5079855;28;19913;-67
2023/04/24 06:13:30;;;;;;;;;;;21.80;99.90;;;;;;5079948;28;20430;-67
2023/04/24 06:15:56;;;;;;;;;;;21.70;99.90;;;;;;5078725;28;20292;-67
2023/04/24 06:18:23;;;;;;;;;;;21.60;99.90;;;;;;5079452;28;20148;-67
2023/04/24 06:20:50;;;;;;;;;;;21.50;99.90;;;;;;5079411;28;19914;-68
2023/04/24 06:23:16;;;;;;;;;;;21.40;99.90;;;;;;5079508;28;20364;-68
2023/04/24 06:25:43;;;;;;;;;;;21.40;99.90;;;;;;5078617;28;19916;-67
2023/04/24 06:28:09;;;;;;;;;;;21.20;99.90;;;;;;5078561;28;19919;-67
2023/04/24 06:30:36;;;;;;;;;;;21.20;99.90;;;;;;5079219;28;19912;-67
2023/04/24 06:33:03;;;;;;;;;;;21.10;99.90;;;;;;5079183;28;19908;-67
2023/04/24 06:35:30;;;;;;;;;;;21.00;99.90;;;;;;5079186;28;19915;-65
2023/04/24 06:37:57;;;;;;;;;;;21.00;99.90;;;;;;5077129;28;19912;-65
2023/04/24 06:40:24;;;;;;;;;;;20.90;99.90;;;;;;5079051;28;19928;-67
2023/04/24 06:42:51;;;;;;;;;;;20.70;99.90;;;;;;5078848;28;20368;-68
2023/04/24 06:45:17;;;;;;;;;;;20.60;99.90;;;;;;5078646;28;19912;-65
2023/04/24 06:47:44;;;;;;;;;;;20.60;99.90;;;;;;5078186;28;19915;-66
2023/04/24 06:50:11;;;;;;;;;;;20.70;99.90;;;;;;5078538;28;19998;-67
2023/04/24 06:52:38;;;;;;;;;;;20.70;99.90;;;;;;5079240;28;19908;-67
2023/04/24 06:55:05;;;;;;;;;;;20.60;99.90;;;;;;5078668;28;19912;-68
2023/04/24 06:57:31;;;;;;;;;;;20.70;99.90;;;;;;5078260;28;19936;-66
2023/04/24 06:59:58;;;;;;;;;;;20.70;99.90;;;;;;5078013;28;19908;-66
2023/04/24 07:02:25;;;;;;;;;;;20.70;99.90;;;;;;5078224;28;19927;-68
2023/04/24 07:04:52;;;;;;;;;;;20.60;99.90;;;;;;5078505;28;19912;-65
2023/04/24 07:07:19;;;;;;;;;;;20.60;99.90;;;;;;5078004;28;19908;-65
2023/04/24 07:09:45;;;;;;;;;;;20.50;99.90;;;;;;5077695;28;20597;-68
2023/04/24 07:12:13;;;;;;;;;;;20.30;99.90;;;;;;5078336;28;20422;-68
2023/04/24 07:14:40;;;;;;;;;;;20.30;99.90;;;;;;5076955;28;19916;-67
2023/04/24 07:17:06;;;;;;;;;;;20.20;99.90;;;;;;5077162;28;20003;-66
2023/04/24 07:19:36;;;;;;;;;;;20.10;99.90;;;;;;5077666;28;19916;-67
2023/04/24 07:22:03;;;;;;;;;;;20.10;99.90;;;;;;5077179;28;19912;-68
2023/04/24 07:24:32;;;;;;;;;;;20.00;99.90;;;;;;5077593;28;20266;-65
2023/04/24 07:26:59;;;;;;;;;;;19.90;99.90;;;;;;5077668;28;19957;-65
2023/04/24 07:29:25;;;;;;;;;;;19.90;99.90;;;;;;5059207;28;19943;-67
2023/04/24 07:31:53;;;;;;;;;;;19.90;99.90;;;;;;5077122;28;19912;-66
2023/04/24 07:34:20;;;;;;;;;;;19.80;99.90;;;;;;5077139;28;20103;-67
2023/04/24 07:36:47;;;;;;;;;;;19.80;99.90;;;;;;5077927;28;19915;-66
2023/04/24 07:39:13;;;;;;;;;;;19.80;99.90;;;;;;5077991;28;19915;-67
2023/04/24 07:41:40;;;;;;;;;;;19.60;99.90;;;;;;5077742;28;19915;-66
2023/04/24 07:44:07;;;;;;;;;;;19.50;99.90;;;;;;5076812;28;19950;-66
2023/04/24 07:46:33;;;;;;;;;;;19.40;99.90;;;;;;5077639;28;19908;-67
2023/04/24 07:49:01;;;;;;;;;;;19.40;99.90;;;;;;5077214;28;20364;-67
2023/04/24 07:51:27;;;;;;;;;;;19.40;99.90;;;;;;5077183;28;19935;-67
2023/04/24 07:53:57;;;;;;;;;;;19.30;99.90;;;;;;5077445;28;19915;-66
2023/04/24 07:56:23;;;;;;;;;;;19.30;99.90;;;;;;5077208;28;19956;-67
2023/04/24 07:58:50;;;;;;;;;;;19.20;99.90;;;;;;5078305;28;19943;-68
2023/04/24 08:01:17;;;;;;;;;;;19.10;99.90;;;;;;5077761;28;19923;-66
2023/04/24 08:03:43;;;;;;;;;;;19.20;99.90;;;;;;5077276;28;19931;-65
2023/04/24 08:06:10;;;;;;;;;;;19.10;99.90;;;;;;5077131;28;19968;-64
2023/04/24 08:08:37;;;;;;;;;;;19.00;99.90;;;;;;5077672;28;19909;-64
2023/04/24 08:11:03;;;;;;;;;;;19.00;99.90;;;;;;5077296;28;19916;-65
2023/04/24 08:13:30;;;;;;;;;;;19.00;99.90;;;;;;5076516;28;20548;-65
2023/04/24 08:15:57;;;;;;;;;;;18.90;99.90;;;;;;5076987;28;19919;-66
2023/04/24 08:18:24;;;;;;;;;;;18.90;99.90;;;;;;5077711;28;19916;-66
2023/04/24 08:20:50;;;;;;;;;;;18.90;99.90;;;;;;5077588;28;19916;-68
2023/04/24 08:23:17;;;;;;;;;;;19.00;99.90;;;;;;5076874;28;19916;-68
2023/04/24 08:25:44;;;;;;;;;;;19.00;99.90;;;;;;5076096;28;19943;-67
2023/04/24 08:28:10;;;;;;;;;;;19.10;99.90;;;;;;5076263;28;19912;-68
2023/04/24 08:30:38;;;;;;;;;;;19.10;99.90;;;;;;5076764;28;19908;-71
2023/04/24 08:33:05;;;;;;;;;;;19.10;99.90;;;;;;5077289;28;19962;-67
2023/04/24 08:35:31;;;;;;;;;;;19.20;99.90;;;;;;5075871;28;20273;-68
2023/04/24 08:37:58;;;;;;;;;;;19.20;99.90;;;;;;5076663;28;20418;-67
2023/04/24 08:40:29;;;;;;;;;;;19.10;99.90;;;;;;5077333;28;19927;-67
2023/04/24 08:42:56;;;;;;;;;;;19.00;99.90;;;;;;5077328;28;19912;-66
2023/04/24 08:45:23;;;;;;;;;;;19.00;99.90;;;;;;5077134;28;19916;-66
2023/04/24 08:47:50;;;;;;;;;;;19.00;99.90;;;;;;5076286;28;19919;-67
2023/04/24 08:50:18;;;;;;;;;;;19.10;99.90;;;;;;5076856;28;19912;-68
2023/04/24 08:52:44;;;;;;;;;;;19.00;99.90;;;;;;5076268;28;19908;-69
2023/04/24 08:55:11;;;;;;;;;;;19.10;99.90;;;;;;5076521;28;19917;-68
2023/04/24 08:57:39;;;;;;;;;;;19.20;99.90;;;;;;5076562;28;19977;-66
2023/04/24 09:00:07;;;;;;;;;;;19.20;99.90;;;;;;5075439;28;19920;-67
2023/04/24 09:02:34;;;;;;;;;;;19.20;99.90;;;;;;5076396;28;19968;-67
2023/04/24 09:05:03;;;;;;;;;;;19.20;99.90;;;;;;5076427;28;19915;-68
2023/04/24 09:07:30;;;;;;;;;;;19.20;99.90;;;;;;5077189;28;19916;-67
2023/04/24 09:09:57;;;;;;;;;;;19.10;99.90;;;;;;5076855;28;20007;-65
2023/04/24 09:12:24;;;;;;;;;;;19.20;99.90;;;;;;5076208;28;19930;-67
2023/04/24 09:14:51;;;;;;;;;;;19.20;99.90;;;;;;5075935;28;20369;-67
2023/04/24 09:17:18;;;;;;;;;;;19.10;99.90;;;;;;5076046;28;19995;-68
2023/04/24 09:19:44;;;;;;;;;;;19.20;99.90;;;;;;5075719;28;20364;-68
2023/04/24 09:22:11;;;;;;;;;;;19.20;99.90;;;;;;5075915;28;19928;-67
2023/04/24 09:24:38;;;;;;;;;;;19.20;99.90;;;;;;5074973;28;20344;-69
2023/04/24 09:27:05;;;;;;;;;;;19.20;99.90;;;;;;5076141;28;19942;-68
2023/04/24 09:29:32;;;;;;;;;;;19.20;99.90;;;;;;5076238;28;19912;-68
2023/04/24 09:31:59;;;;;;;;;;;19.20;99.90;;;;;;5076349;28;19960;-67
2023/04/24 09:34:27;;;;;;;;;;;19.20;99.90;;;;;;5075483;28;19912;-66
2023/04/24 09:36:54;;;;;;;;;;;19.30;99.90;;;;;;5075596;28;19959;-69
2023/04/24 09:39:20;;;;;;;;;;;19.20;99.90;;;;;;5078275;28;19916;-69
2023/04/24 09:41:48;;;;;;;;;;;19.30;99.90;;;;;;5079837;28;20326;-66
2023/04/24 09:44:22;;;;;;;;;;;19.20;99.90;;;;;;5080071;28;20269;-66
2023/04/24 09:46:51;;;;;;;;;;;19.20;99.90;;;;;;5079791;28;20007;-67
2023/04/24 09:49:28;;;;;;;;;;;19.20;99.90;;;;;;5080218;28;19920;-66
2023/04/24 09:52:08;;;;;;;;;;;19.20;99.90;;;;;;5079775;28;19915;-66
2023/04/24 09:54:36;;;;;;;;;;;19.20;99.90;;;;;;5080050;28;19981;-66
2023/04/24 09:57:03;;;;;;;;;;;19.10;99.90;;;;;;5080656;28;20380;-66
2023/04/24 09:59:30;;;;;;;;;;;19.10;99.90;;;;;;5078717;28;19915;-65
2023/04/24 10:01:58;;;;;;;;;;;19.00;99.90;;;;;;5079882;28;20021;-69
2023/04/24 10:04:26;;;;;;;;;;;19.00;99.90;;;;;;5079523;28;19916;-67
2023/04/24 10:06:53;;;;;;;;;;;19.00;99.90;;;;;;5079688;28;19919;-66
2023/04/24 10:09:21;;;;;;;;;;;19.10;99.90;;;;;;5079531;28;19915;-68
2023/04/24 10:11:48;;;;;;;;;;;19.10;99.90;;;;;;5078514;28;19908;-67
2023/04/24 10:14:16;;;;;;;;;;;19.10;99.90;;;;;;5079692;28;19919;-68
2023/04/24 10:16:43;;;;;;;;;;;19.00;99.90;;;;;;5080195;28;19914;-68
2023/04/24 10:19:10;;;;;;;;;;;19.00;99.90;;;;;;5079389;28;19912;-66
2023/04/24 10:21:42;;;;;;;;;;;19.00;99.90;;;;;;5079884;28;19908;-67
2023/04/24 10:24:09;;;;;;;;;;;19.00;99.90;;;;;;5080017;28;19973;-65
2023/04/24 10:26:37;;;;;;;;;;;19.00;99.90;;;;;;5079161;28;20639;-67
2023/04/24 10:29:06;;;;;;;;;;;19.00;99.90;;;;;;5078239;28;19923;-68
2023/04/24 10:31:33;;;;;;;;;;;19.00;99.90;;;;;;5078779;28;19916;-69
2023/04/24 10:34:00;;;;;;;;;;;19.00;99.90;;;;;;5078591;28;20345;-66
2023/04/24 10:36:27;;;;;;;;;;;19.00;99.90;;;;;;5061225;28;19914;-66
2023/04/24 10:38:56;;;;;;;;;;;19.00;99.90;;;;;;5078570;28;19908;-66
2023/04/24 10:41:25;;;;;;;;;;;19.00;99.90;;;;;;5080262;28;19969;-66
2023/04/24 10:44:09;;;;;;;;;;;19.00;99.90;;;;;;5076023;28;19916;-65
2023/04/24 10:46:36;;;;;;;;;;;18.90;99.90;;;;;;5078897;28;19908;-67
2023/04/24 10:49:08;;;;;;;;;;;18.90;99.90;;;;;;5078380;28;19912;-66
2023/04/24 10:51:44;;;;;;;;;;;18.90;99.90;;;;;;5079302;28;20022;-66
2023/04/24 10:54:27;;;;;;;;;;;18.90;99.90;;;;;;5079150;28;20607;-65
2023/04/24 10:57:14;;;;;;;;;;;18.90;99.90;;;;;;5075891;28;19908;-65
2023/04/24 10:59:41;;;;;;;;;;;18.90;99.90;;;;;;5077836;28;19924;-66
2023/04/24 11:02:08;;;;;;;;;;;18.90;99.90;;;;;;5077919;28;20071;-67
2023/04/24 11:04:37;;;;;;;;;;;18.80;99.90;;;;;;5079047;28;19920;-69
2023/04/24 11:07:04;;;;;;;;;;;18.90;99.90;;;;;;5077790;28;19915;-68
2023/04/24 11:09:31;;;;;;;;;;;18.80;99.90;;;;;;5080222;28;20479;-65
2023/04/24 11:12:10;;;;;;;;;;;18.80;99.90;;;;;;5076170;28;19908;-67
2023/04/24 11:14:57;;;;;;;;;;;18.70;99.90;;;;;;5079667;28;19912;-66
2023/04/24 11:17:31;;;;;;;;;;;18.80;99.90;;;;;;5065989;28;19958;-68
2023/04/24 11:20:03;;;;;;;;;;;18.70;99.90;;;;;;5075364;28;19908;-67
2023/04/24 11:22:33;;;;;;;;;;;18.80;99.90;;;;;;5079545;28;19920;-65
2023/04/24 11:25:02;;;;;;;;;;;18.80;99.90;;;;;;5075951;28;19909;-67
2023/04/24 11:27:30;;;;;;;;;;;18.70;99.90;;;;;;5079074;28;19962;-67
2023/04/24 11:29:56;;;;;;;;;;;18.70;99.90;;;;;;5076265;28;19919;-66
2023/04/24 11:32:27;;;;;;;;;;;18.60;99.90;;;;;;5079875;28;20388;-68
2023/04/24 11:34:55;;;;;;;;;;;18.50;99.90;;;;;;5077193;28;19951;-68
2023/04/24 11:37:23;;;;;;;;;;;18.50;99.90;;;;;;5079086;28;20057;-67
2023/04/24 11:39:51;;;;;;;;;;;18.30;99.90;;;;;;5077362;28;20404;-66
2023/04/24 11:42:18;;;;;;;;;;;18.30;99.90;;;;;;5077560;28;19908;-68
2023/04/24 11:44:47;;;;;;;;;;;18.20;99.90;;;;;;5077792;28;20304;-67
2023/04/24 11:47:14;;;;;;;;;;;18.20;99.90;;;;;;5077157;28;20625;-68
2023/04/24 11:49:40;;;;;;;;;;;18.10;99.90;;;;;;5078860;28;19919;-67
2023/04/24 11:52:07;;;;;;;;;;;18.10;99.90;;;;;;5075851;28;19939;-65
2023/04/24 11:54:34;;;;;;;;;;;18.10;99.90;;;;;;5078459;28;19916;-67
2023/04/24 11:57:04;;;;;;;;;;;18.10;99.90;;;;;;5075859;28;19912;-67
2023/04/24 11:59:35;;;;;;;;;;;18.00;99.90;;;;;;5079105;28;19916;-65
2023/04/24 12:02:02;;;;;;;;;;;17.90;99.90;;;;;;5075212;28;19916;-67
2023/04/24 12:04:38;;;;;;;;;;;17.90;99.90;;;;;;5079070;28;19924;-68
2023/04/24 12:07:05;;;;;;;;;;;17.90;99.90;;;;;;5074790;28;19916;-67
2023/04/24 12:09:48;;;;;;;;;;;17.90;99.90;;;;;;5079211;28;19908;-66
2023/04/24 12:12:16;;;;;;;;;;;17.80;99.90;;;;;;5077010;28;20410;-68
2023/04/24 12:14:48;;;;;;;;;;;17.80;99.90;;;;;;5078939;28;19995;-66
2023/04/24 12:17:15;;;;;;;;;;;17.80;99.90;;;;;;5076700;28;19908;-67
2023/04/24 12:19:48;;;;;;;;;;;17.70;99.90;;;;;;5079188;28;19915;-67
2023/04/24 12:22:15;;;;;;;;;;;17.70;99.90;;;;;;5076495;28;19974;-67
2023/04/24 12:24:57;;;;;;;;;;;17.60;99.90;;;;;;5078853;28;19916;-67
2023/04/24 12:27:24;;;;;;;;;;;17.60;99.90;;;;;;5056436;28;19980;-67
2023/04/24 12:29:57;;;;;;;;;;;17.50;99.90;;;;;;5056818;28;19962;-67
2023/04/24 12:32:27;;;;;;;;;;;17.40;99.90;;;;;;5055505;28;20086;-66
2023/04/24 12:34:54;;;;;;;;;;;17.40;99.90;;;;;;5056180;28;19909;-68
2023/04/24 12:37:23;;;;;;;;;;;17.50;99.90;;;;;;5059686;28;19922;-68
2023/04/24 12:40:18;;;;;;;;;;;17.40;99.90;;;;;;5077670;28;19920;-68
2023/04/24 12:42:46;;;;;;;;;;;17.40;99.90;;;;;;5061012;28;19912;-66
2023/04/24 12:45:14;;;;;;;;;;;17.30;99.90;;;;;;5074412;28;19916;-66
2023/04/24 12:47:41;;;;;;;;;;;17.30;99.90;;;;;;5077841;28;19947;-69
2023/04/24 12:50:09;;;;;;;;;;;17.30;99.90;;;;;;5073845;28;20353;-67
2023/04/24 12:52:36;;;;;;;;;;;17.30;99.90;;;;;;5077458;28;19912;-69
2023/04/24 12:55:04;;;;;;;;;;;17.30;99.90;;;;;;5075932;28;19908;-66
2023/04/24 12:57:31;;;;;;;;;;;17.30;99.90;;;;;;5076352;28;20365;-68
2023/04/24 12:59:58;;;;;;;;;;;17.10;99.90;;;;;;5075485;28;19912;-68
2023/04/24 13:02:27;;;;;;;;;;;17.10;99.90;;;;;;5075591;28;19909;-66
2023/04/24 13:04:54;;;;;;;;;;;17.20;99.90;;;;;;5077793;28;19912;-68
2023/04/24 13:07:21;;;;;;;;;;;17.20;99.90;;;;;;5074706;28;19912;-65
2023/04/24 13:09:48;;;;;;;;;;;17.10;99.90;;;;;;5078195;28;20279;-66
2023/04/24 13:12:15;;;;;;;;;;;17.10;99.90;;;;;;5073318;28;20343;-68
2023/04/24 13:14:42;;;;;;;;;;;17.10;99.90;;;;;;5076894;28;19919;-67
2023/04/24 13:17:09;;;;;;;;;;;17.00;99.90;;;;;;5075098;28;19912;-66
2023/04/24 13:19:36;;;;;;;;;;;17.00;99.90;;;;;;5076086;28;19912;-67
2023/04/24 13:22:03;;;;;;;;;;;17.00;99.90;;;;;;5075809;28;19969;-67
2023/04/24 13:24:31;;;;;;;;;;;17.00;99.90;;;;;;5074705;28;19920;-67
2023/04/24 13:26:58;;;;;;;;;;;17.00;99.90;;;;;;5076891;28;20360;-68
2023/04/24 13:29:24;;;;;;;;;;;16.90;99.90;;;;;;5074370;28;19995;-69
2023/04/24 13:31:51;;;;;;;;;;;16.90;99.90;;;;;;5077743;28;20106;-64
2023/04/24 13:34:18;;;;;;;;;;;16.90;99.90;;;;;;5073415;28;20003;-67
2023/04/24 13:36:45;;;;;;;;;;;16.90;99.90;;;;;;5077399;28;20311;-68
2023/04/24 13:39:12;;;;;;;;;;;16.90;99.90;;;;;;5075144;28;19912;-69
2023/04/24 13:41:39;;;;;;;;;;;16.90;99.90;;;;;;5076282;28;20044;-66
2023/04/24 13:44:06;;;;;;;;;;;16.90;99.90;;;;;;5075137;28;19926;-66
2023/04/24 13:46:33;;;;;;;;;;;16.80;99.90;;;;;;5074876;28;19912;-68
2023/04/24 13:48:59;;;;;;;;;;;16.80;99.90;;;;;;5077420;28;19908;-67
2023/04/24 13:51:30;;;;;;;;;;;16.80;99.90;;;;;;5073978;28;20284;-67
2023/04/24 13:53:56;;;;;;;;;;;16.80;99.90;;;;;;5077312;28;20352;-65
2023/04/24 13:56:23;;;;;;;;;;;16.80;99.90;;;;;;5073127;28;19908;-68
2023/04/24 13:58:49;;;;;;;;;;;16.80;99.90;;;;;;5077319;28;19947;-67
2023/04/24 14:01:16;;;;;;;;;;;16.80;99.90;;;;;;5075220;28;19916;-68
2023/04/24 14:03:45;;;;;;;;;;;16.80;99.90;;;;;;5076094;28;20022;-67
2023/04/24 14:06:12;;;;;;;;;;;16.90;99.90;;;;;;5075182;28;19912;-67
2023/04/24 14:08:39;;;;;;;;;;;16.90;99.90;;;;;;5074579;28;20345;-68
2023/04/24 14:11:05;;;;;;;;;;;16.90;99.90;;;;;;5076380;28;19908;-68
2023/04/24 14:13:32;;;;;;;;;;;16.90;99.90;;;;;;5074714;28;20349;-66
2023/04/24 14:15:59;;;;;;;;;;;16.90;99.90;;;;;;5077051;28;19912;-67
2023/04/24 14:18:26;;;;;;;;;;;16.90;99.90;;;;;;5072741;28;20775;-67